sensor_id;sensor_type;location;lat;lon;timestamp;P1;durP1;ratioP1;P2;durP2;ratioP2
5008;SDS011;2523;51.058;6.922;2022-07-29T00:01:14;3.43;;;2.00;;
5008;SDS011;2523;51.058;6.922;2022-07-29T00:03:40;2.00;;;1.80;;
5008;SDS011;2523;51.058;6.922;2022-07-29T00:06:06;2.30;;;2.10;;
5008;SDS011;2523;51.058;6.922;2022-07-29T00:08:31;2.17;;;1.97;;
5008;SDS011;2523;51.058;6.922;2022-07-29T00:10:57;6.73;;;2.03;;
5008;SDS011;2523;51.058;6.922;2022-07-29T00:13:22;3.20;;;2.13;;
5008;SDS011;2523;51.058;6.922;2022-07-29T00:15:48;2.87;;;2.10;;
5008;SDS011;2523;51.058;6.922;2022-07-29T00:18:14;2.37;;;1.97;;
5008;SDS011;2523;51.058;6.922;2022-07-29T00:20:39;2.03;;;1.67;;
5008;SDS011;2523;51.058;6.922;2022-07-29T00:23:05;2.50;;;2.30;;
5008;SDS011;2523;51.058;6.922;2022-07-29T00:25:30;1.73;;;1.63;;
5008;SDS011;2523;51.058;6.922;2022-07-29T00:27:56;2.10;;;1.90;;
5008;SDS011;2523;51.058;6.922;2022-07-29T00:30:22;2.53;;;2.30;;
5008;SDS011;2523;51.058;6.922;2022-07-29T00:32:48;3.90;;;1.97;;
5008;SDS011;2523;51.058;6.922;2022-07-29T00:35:13;4.10;;;2.40;;
5008;SDS011;2523;51.058;6.922;2022-07-29T00:37:57;2.50;;;2.20;;
5008;SDS011;2523;51.058;6.922;2022-07-29T00:40:23;2.47;;;2.27;;
5008;SDS011;2523;51.058;6.922;2022-07-29T00:42:49;2.83;;;2.33;;
5008;SDS011;2523;51.058;6.922;2022-07-29T00:45:16;2.30;;;2.10;;
5008;SDS011;2523;51.058;6.922;2022-07-29T00:47:42;3.53;;;1.90;;
5008;SDS011;2523;51.058;6.922;2022-07-29T00:50:09;2.80;;;1.80;;
5008;SDS011;2523;51.058;6.922;2022-07-29T00:52:37;2.67;;;2.40;;
5008;SDS011;2523;51.058;6.922;2022-07-29T00:55:04;2.30;;;2.10;;
5008;SDS011;2523;51.058;6.922;2022-07-29T00:57:31;2.03;;;1.63;;
5008;SDS011;2523;51.058;6.922;2022-07-29T00:59:57;4.03;;;2.00;;
5008;SDS011;2523;51.058;6.922;2022-07-29T01:02:23;6.13;;;2.30;;
5008;SDS011;2523;51.058;6.922;2022-07-29T01:04:48;2.67;;;2.13;;
5008;SDS011;2523;51.058;6.922;2022-07-29T01:07:14;6.90;;;2.50;;
5008;SDS011;2523;51.058;6.922;2022-07-29T01:09:41;5.80;;;2.57;;
5008;SDS011;2523;51.058;6.922;2022-07-29T01:12:08;3.17;;;2.23;;
5008;SDS011;2523;51.058;6.922;2022-07-29T01:14:35;2.07;;;1.87;;
5008;SDS011;2523;51.058;6.922;2022-07-29T01:17:06;2.30;;;2.10;;
5008;SDS011;2523;51.058;6.922;2022-07-29T01:19:54;3.87;;;1.80;;
5008;SDS011;2523;51.058;6.922;2022-07-29T01:27:54;6.67;;;2.40;;
5008;SDS011;2523;51.058;6.922;2022-07-29T01:30:25;4.97;;;2.47;;
5008;SDS011;2523;51.058;6.922;2022-07-29T01:32:54;2.23;;;2.00;;
5008;SDS011;2523;51.058;6.922;2022-07-29T01:35:30;2.10;;;1.90;;
5008;SDS011;2523;51.058;6.922;2022-07-29T01:40:42;2.27;;;2.07;;
5008;SDS011;2523;51.058;6.922;2022-07-29T01:43:20;2.40;;;2.20;;
5008;SDS011;2523;51.058;6.922;2022-07-29T01:46:01;2.33;;;2.23;;
5008;SDS011;2523;51.058;6.922;2022-07-29T01:48:31;3.13;;;2.43;;
5008;SDS011;2523;51.058;6.922;2022-07-29T01:51:10;6.10;;;2.40;;
5008;SDS011;2523;51.058;6.922;2022-07-29T01:54:02;2.50;;;2.30;;
5008;SDS011;2523;51.058;6.922;2022-07-29T01:56:33;4.10;;;2.07;;
5008;SDS011;2523;51.058;6.922;2022-07-29T01:59:01;3.27;;;2.50;;
5008;SDS011;2523;51.058;6.922;2022-07-29T02:01:29;2.43;;;2.23;;
5008;SDS011;2523;51.058;6.922;2022-07-29T02:03:57;3.13;;;2.20;;
5008;SDS011;2523;51.058;6.922;2022-07-29T02:06:27;2.53;;;2.33;;
5008;SDS011;2523;51.058;6.922;2022-07-29T02:08:54;3.53;;;1.90;;
5008;SDS011;2523;51.058;6.922;2022-07-29T02:11:23;3.03;;;2.20;;
5008;SDS011;2523;51.058;6.922;2022-07-29T02:13:49;5.50;;;2.27;;
5008;SDS011;2523;51.058;6.922;2022-07-29T02:16:18;4.23;;;1.93;;
5008;SDS011;2523;51.058;6.922;2022-07-29T02:18:47;2.73;;;1.97;;
5008;SDS011;2523;51.058;6.922;2022-07-29T02:21:19;3.90;;;2.37;;
5008;SDS011;2523;51.058;6.922;2022-07-29T02:23:49;3.87;;;2.23;;
5008;SDS011;2523;51.058;6.922;2022-07-29T02:26:18;4.33;;;2.27;;
5008;SDS011;2523;51.058;6.922;2022-07-29T02:28:45;4.33;;;2.30;;
5008;SDS011;2523;51.058;6.922;2022-07-29T02:31:12;4.83;;;2.50;;
5008;SDS011;2523;51.058;6.922;2022-07-29T02:33:38;2.60;;;2.37;;
5008;SDS011;2523;51.058;6.922;2022-07-29T02:36:05;6.53;;;2.57;;
5008;SDS011;2523;51.058;6.922;2022-07-29T02:38:32;4.97;;;2.37;;
5008;SDS011;2523;51.058;6.922;2022-07-29T02:41:16;2.60;;;2.20;;
5008;SDS011;2523;51.058;6.922;2022-07-29T02:43:44;2.53;;;2.30;;
5008;SDS011;2523;51.058;6.922;2022-07-29T02:46:16;6.10;;;2.30;;
5008;SDS011;2523;51.058;6.922;2022-07-29T02:48:50;3.57;;;2.60;;
5008;SDS011;2523;51.058;6.922;2022-07-29T02:51:42;2.73;;;2.40;;
5008;SDS011;2523;51.058;6.922;2022-07-29T02:54:11;3.60;;;2.37;;
5008;SDS011;2523;51.058;6.922;2022-07-29T02:56:45;5.27;;;2.57;;
5008;SDS011;2523;51.058;6.922;2022-07-29T02:59:13;3.80;;;2.37;;
5008;SDS011;2523;51.058;6.922;2022-07-29T03:01:41;4.27;;;2.40;;
5008;SDS011;2523;51.058;6.922;2022-07-29T03:04:09;2.80;;;2.27;;
5008;SDS011;2523;51.058;6.922;2022-07-29T03:06:36;4.13;;;2.40;;
5008;SDS011;2523;51.058;6.922;2022-07-29T03:09:03;2.73;;;2.40;;
5008;SDS011;2523;51.058;6.922;2022-07-29T03:11:29;5.10;;;2.57;;
5008;SDS011;2523;51.058;6.922;2022-07-29T03:13:55;5.50;;;2.50;;
5008;SDS011;2523;51.058;6.922;2022-07-29T03:16:21;6.17;;;2.50;;
5008;SDS011;2523;51.058;6.922;2022-07-29T03:18:48;3.27;;;2.97;;
5008;SDS011;2523;51.058;6.922;2022-07-29T03:21:15;3.30;;;2.27;;
5008;SDS011;2523;51.058;6.922;2022-07-29T03:23:44;3.37;;;2.50;;
5008;SDS011;2523;51.058;6.922;2022-07-29T03:26:10;3.37;;;2.13;;
5008;SDS011;2523;51.058;6.922;2022-07-29T03:28:36;3.97;;;2.30;;
5008;SDS011;2523;51.058;6.922;2022-07-29T03:31:02;3.57;;;2.60;;
5008;SDS011;2523;51.058;6.922;2022-07-29T03:33:27;4.63;;;2.90;;
5008;SDS011;2523;51.058;6.922;2022-07-29T03:35:55;3.43;;;2.50;;
5008;SDS011;2523;51.058;6.922;2022-07-29T03:38:20;4.33;;;2.80;;
5008;SDS011;2523;51.058;6.922;2022-07-29T03:40:52;8.33;;;2.90;;
5008;SDS011;2523;51.058;6.922;2022-07-29T03:43:20;9.00;;;3.27;;
5008;SDS011;2523;51.058;6.922;2022-07-29T03:45:49;3.37;;;2.50;;
5008;SDS011;2523;51.058;6.922;2022-07-29T03:48:18;4.63;;;2.87;;
5008;SDS011;2523;51.058;6.922;2022-07-29T03:50:46;4.03;;;2.63;;
5008;SDS011;2523;51.058;6.922;2022-07-29T03:53:12;3.30;;;2.60;;
5008;SDS011;2523;51.058;6.922;2022-07-29T03:55:41;4.20;;;2.50;;
5008;SDS011;2523;51.058;6.922;2022-07-29T03:58:09;3.87;;;2.40;;
5008;SDS011;2523;51.058;6.922;2022-07-29T04:00:37;3.70;;;2.30;;
5008;SDS011;2523;51.058;6.922;2022-07-29T04:03:03;3.27;;;2.97;;
5008;SDS011;2523;51.058;6.922;2022-07-29T04:05:29;5.40;;;2.90;;
5008;SDS011;2523;51.058;6.922;2022-07-29T04:07:55;2.10;;;1.87;;
5008;SDS011;2523;51.058;6.922;2022-07-29T04:10:20;4.33;;;2.60;;
5008;SDS011;2523;51.058;6.922;2022-07-29T04:12:48;8.27;;;2.33;;
5008;SDS011;2523;51.058;6.922;2022-07-29T04:15:14;6.03;;;2.60;;
5008;SDS011;2523;51.058;6.922;2022-07-29T04:17:39;6.50;;;2.53;;
5008;SDS011;2523;51.058;6.922;2022-07-29T04:20:05;3.60;;;2.60;;
5008;SDS011;2523;51.058;6.922;2022-07-29T04:22:31;3.93;;;2.53;;
5008;SDS011;2523;51.058;6.922;2022-07-29T04:24:56;4.60;;;2.80;;
5008;SDS011;2523;51.058;6.922;2022-07-29T04:27:22;4.57;;;2.87;;
5008;SDS011;2523;51.058;6.922;2022-07-29T04:29:47;4.90;;;3.40;;
5008;SDS011;2523;51.058;6.922;2022-07-29T04:32:13;3.00;;;2.50;;
5008;SDS011;2523;51.058;6.922;2022-07-29T04:34:38;4.60;;;2.40;;
5008;SDS011;2523;51.058;6.922;2022-07-29T04:37:04;3.27;;;2.43;;
5008;SDS011;2523;51.058;6.922;2022-07-29T04:39:29;3.00;;;2.70;;
5008;SDS011;2523;51.058;6.922;2022-07-29T04:41:55;4.90;;;2.30;;
5008;SDS011;2523;51.058;6.922;2022-07-29T04:44:21;11.13;;;4.97;;
5008;SDS011;2523;51.058;6.922;2022-07-29T04:46:47;4.00;;;2.20;;
5008;SDS011;2523;51.058;6.922;2022-07-29T04:49:12;3.03;;;2.73;;
5008;SDS011;2523;51.058;6.922;2022-07-29T04:51:38;3.30;;;2.07;;
5008;SDS011;2523;51.058;6.922;2022-07-29T04:54:04;3.30;;;2.20;;
5008;SDS011;2523;51.058;6.922;2022-07-29T04:56:29;2.63;;;2.10;;
5008;SDS011;2523;51.058;6.922;2022-07-29T04:58:55;2.00;;;1.80;;
5008;SDS011;2523;51.058;6.922;2022-07-29T05:01:20;3.07;;;1.93;;
5008;SDS011;2523;51.058;6.922;2022-07-29T05:03:46;2.50;;;2.10;;
5008;SDS011;2523;51.058;6.922;2022-07-29T05:06:11;4.83;;;2.50;;
5008;SDS011;2523;51.058;6.922;2022-07-29T05:08:37;3.77;;;2.20;;
5008;SDS011;2523;51.058;6.922;2022-07-29T05:11:03;3.00;;;2.23;;
5008;SDS011;2523;51.058;6.922;2022-07-29T05:13:29;4.27;;;2.20;;
5008;SDS011;2523;51.058;6.922;2022-07-29T05:15:54;6.33;;;2.27;;
5008;SDS011;2523;51.058;6.922;2022-07-29T05:18:20;2.30;;;2.10;;
5008;SDS011;2523;51.058;6.922;2022-07-29T05:20:46;6.00;;;2.57;;
5008;SDS011;2523;51.058;6.922;2022-07-29T05:23:11;3.10;;;2.03;;
5008;SDS011;2523;51.058;6.922;2022-07-29T05:25:40;5.50;;;2.30;;
5008;SDS011;2523;51.058;6.922;2022-07-29T05:28:05;4.40;;;2.37;;
5008;SDS011;2523;51.058;6.922;2022-07-29T05:30:31;2.10;;;1.90;;
5008;SDS011;2523;51.058;6.922;2022-07-29T05:32:56;2.27;;;1.70;;
5008;SDS011;2523;51.058;6.922;2022-07-29T05:35:22;2.90;;;2.03;;
5008;SDS011;2523;51.058;6.922;2022-07-29T05:37:47;4.80;;;2.50;;
5008;SDS011;2523;51.058;6.922;2022-07-29T05:40:13;2.30;;;2.00;;
5008;SDS011;2523;51.058;6.922;2022-07-29T05:42:38;5.03;;;1.70;;
5008;SDS011;2523;51.058;6.922;2022-07-29T05:45:04;2.20;;;2.00;;
5008;SDS011;2523;51.058;6.922;2022-07-29T05:47:30;2.47;;;2.27;;
5008;SDS011;2523;51.058;6.922;2022-07-29T05:49:56;5.00;;;2.37;;
5008;SDS011;2523;51.058;6.922;2022-07-29T05:52:21;4.33;;;2.20;;
5008;SDS011;2523;51.058;6.922;2022-07-29T05:54:47;2.07;;;1.87;;
5008;SDS011;2523;51.058;6.922;2022-07-29T05:57:16;10.53;;;2.30;;
5008;SDS011;2523;51.058;6.922;2022-07-29T05:59:42;4.10;;;2.10;;
5008;SDS011;2523;51.058;6.922;2022-07-29T06:02:07;2.93;;;2.20;;
5008;SDS011;2523;51.058;6.922;2022-07-29T06:04:33;9.10;;;2.30;;
5008;SDS011;2523;51.058;6.922;2022-07-29T06:07:00;4.27;;;2.30;;
5008;SDS011;2523;51.058;6.922;2022-07-29T06:09:26;5.13;;;2.33;;
5008;SDS011;2523;51.058;6.922;2022-07-29T06:11:52;9.47;;;2.30;;
5008;SDS011;2523;51.058;6.922;2022-07-29T06:14:17;5.30;;;2.20;;
5008;SDS011;2523;51.058;6.922;2022-07-29T06:16:43;5.33;;;2.23;;
5008;SDS011;2523;51.058;6.922;2022-07-29T06:19:09;5.73;;;2.40;;
5008;SDS011;2523;51.058;6.922;2022-07-29T06:21:35;3.87;;;2.23;;
5008;SDS011;2523;51.058;6.922;2022-07-29T06:24:00;3.57;;;2.70;;
5008;SDS011;2523;51.058;6.922;2022-07-29T06:26:26;5.13;;;2.90;;
5008;SDS011;2523;51.058;6.922;2022-07-29T06:28:52;3.87;;;2.27;;
5008;SDS011;2523;51.058;6.922;2022-07-29T06:31:17;4.07;;;2.50;;
5008;SDS011;2523;51.058;6.922;2022-07-29T06:33:43;3.50;;;2.43;;
5008;SDS011;2523;51.058;6.922;2022-07-29T06:36:08;7.93;;;2.80;;
5008;SDS011;2523;51.058;6.922;2022-07-29T06:38:34;3.23;;;2.33;;
5008;SDS011;2523;51.058;6.922;2022-07-29T06:41:00;6.27;;;2.50;;
5008;SDS011;2523;51.058;6.922;2022-07-29T06:43:37;4.17;;;2.93;;
5008;SDS011;2523;51.058;6.922;2022-07-29T06:46:06;2.63;;;2.40;;
5008;SDS011;2523;51.058;6.922;2022-07-29T06:48:34;3.90;;;2.10;;
5008;SDS011;2523;51.058;6.922;2022-07-29T06:51:01;5.90;;;2.60;;
5008;SDS011;2523;51.058;6.922;2022-07-29T06:53:27;4.47;;;2.40;;
5008;SDS011;2523;51.058;6.922;2022-07-29T06:55:53;4.10;;;2.23;;
5008;SDS011;2523;51.058;6.922;2022-07-29T06:58:19;3.47;;;1.90;;
5008;SDS011;2523;51.058;6.922;2022-07-29T07:00:45;5.63;;;5.10;;
5008;SDS011;2523;51.058;6.922;2022-07-29T07:03:12;3.17;;;2.40;;
5008;SDS011;2523;51.058;6.922;2022-07-29T07:05:38;3.20;;;2.00;;
5008;SDS011;2523;51.058;6.922;2022-07-29T07:08:04;3.33;;;2.07;;
5008;SDS011;2523;51.058;6.922;2022-07-29T07:10:30;5.70;;;2.30;;
5008;SDS011;2523;51.058;6.922;2022-07-29T07:12:55;4.47;;;2.60;;
5008;SDS011;2523;51.058;6.922;2022-07-29T07:15:21;10.40;;;2.80;;
5008;SDS011;2523;51.058;6.922;2022-07-29T07:17:47;2.97;;;2.67;;
5008;SDS011;2523;51.058;6.922;2022-07-29T07:20:14;4.07;;;2.80;;
5008;SDS011;2523;51.058;6.922;2022-07-29T07:22:40;3.53;;;3.10;;
5008;SDS011;2523;51.058;6.922;2022-07-29T07:25:06;6.67;;;3.50;;
5008;SDS011;2523;51.058;6.922;2022-07-29T07:27:32;5.03;;;3.30;;
5008;SDS011;2523;51.058;6.922;2022-07-29T07:29:57;4.70;;;3.23;;
5008;SDS011;2523;51.058;6.922;2022-07-29T07:32:23;5.43;;;3.10;;
5008;SDS011;2523;51.058;6.922;2022-07-29T07:34:49;4.97;;;3.23;;
5008;SDS011;2523;51.058;6.922;2022-07-29T07:37:14;3.80;;;2.90;;
5008;SDS011;2523;51.058;6.922;2022-07-29T07:39:40;6.00;;;2.90;;
5008;SDS011;2523;51.058;6.922;2022-07-29T07:42:06;7.30;;;3.47;;
5008;SDS011;2523;51.058;6.922;2022-07-29T07:44:32;4.83;;;3.07;;
5008;SDS011;2523;51.058;6.922;2022-07-29T07:46:57;4.10;;;3.10;;
5008;SDS011;2523;51.058;6.922;2022-07-29T07:49:23;4.60;;;3.60;;
5008;SDS011;2523;51.058;6.922;2022-07-29T07:51:49;4.17;;;3.27;;
5008;SDS011;2523;51.058;6.922;2022-07-29T07:54:14;5.03;;;3.43;;
5008;SDS011;2523;51.058;6.922;2022-07-29T07:56:40;5.50;;;3.70;;
5008;SDS011;2523;51.058;6.922;2022-07-29T07:59:05;3.40;;;3.10;;
5008;SDS011;2523;51.058;6.922;2022-07-29T08:01:31;7.07;;;3.13;;
5008;SDS011;2523;51.058;6.922;2022-07-29T08:03:57;3.90;;;3.20;;
5008;SDS011;2523;51.058;6.922;2022-07-29T08:06:22;3.47;;;2.90;;
5008;SDS011;2523;51.058;6.922;2022-07-29T08:08:49;7.57;;;3.70;;
5008;SDS011;2523;51.058;6.922;2022-07-29T08:11:15;5.40;;;3.07;;
5008;SDS011;2523;51.058;6.922;2022-07-29T08:13:41;7.23;;;3.40;;
5008;SDS011;2523;51.058;6.922;2022-07-29T08:16:07;3.57;;;2.67;;
5008;SDS011;2523;51.058;6.922;2022-07-29T08:18:37;3.80;;;3.33;;
5008;SDS011;2523;51.058;6.922;2022-07-29T08:21:04;4.67;;;2.97;;
5008;SDS011;2523;51.058;6.922;2022-07-29T08:23:29;3.43;;;3.13;;
5008;SDS011;2523;51.058;6.922;2022-07-29T08:26:03;4.70;;;3.57;;
5008;SDS011;2523;51.058;6.922;2022-07-29T08:28:35;3.63;;;3.33;;
5008;SDS011;2523;51.058;6.922;2022-07-29T08:31:04;4.00;;;2.80;;
5008;SDS011;2523;51.058;6.922;2022-07-29T08:33:31;3.60;;;3.10;;
5008;SDS011;2523;51.058;6.922;2022-07-29T08:35:57;6.07;;;2.87;;
5008;SDS011;2523;51.058;6.922;2022-07-29T08:38:23;3.50;;;3.10;;
5008;SDS011;2523;51.058;6.922;2022-07-29T08:40:50;4.10;;;3.07;;
5008;SDS011;2523;51.058;6.922;2022-07-29T08:43:17;4.03;;;3.60;;
5008;SDS011;2523;51.058;6.922;2022-07-29T08:45:44;5.80;;;3.50;;
5008;SDS011;2523;51.058;6.922;2022-07-29T08:48:12;4.17;;;3.60;;
5008;SDS011;2523;51.058;6.922;2022-07-29T08:50:38;5.60;;;3.20;;
5008;SDS011;2523;51.058;6.922;2022-07-29T08:53:06;4.07;;;3.67;;
5008;SDS011;2523;51.058;6.922;2022-07-29T08:55:35;10.90;;;3.70;;
5008;SDS011;2523;51.058;6.922;2022-07-29T08:58:03;7.97;;;3.43;;
5008;SDS011;2523;51.058;6.922;2022-07-29T09:00:30;6.33;;;3.70;;
5008;SDS011;2523;51.058;6.922;2022-07-29T09:02:57;4.40;;;4.00;;
5008;SDS011;2523;51.058;6.922;2022-07-29T09:05:24;5.00;;;4.03;;
5008;SDS011;2523;51.058;6.922;2022-07-29T09:07:51;4.23;;;3.70;;
5008;SDS011;2523;51.058;6.922;2022-07-29T09:10:17;6.20;;;3.80;;
5008;SDS011;2523;51.058;6.922;2022-07-29T09:12:43;8.10;;;3.90;;
5008;SDS011;2523;51.058;6.922;2022-07-29T09:15:09;3.97;;;3.53;;
5008;SDS011;2523;51.058;6.922;2022-07-29T09:17:41;8.37;;;3.87;;
5008;SDS011;2523;51.058;6.922;2022-07-29T09:20:09;8.07;;;4.33;;
5008;SDS011;2523;51.058;6.922;2022-07-29T09:22:42;5.97;;;4.30;;
5008;SDS011;2523;51.058;6.922;2022-07-29T09:25:07;7.00;;;4.03;;
5008;SDS011;2523;51.058;6.922;2022-07-29T09:27:36;4.43;;;3.70;;
5008;SDS011;2523;51.058;6.922;2022-07-29T09:30:03;4.73;;;4.23;;
5008;SDS011;2523;51.058;6.922;2022-07-29T09:32:31;5.03;;;3.60;;
5008;SDS011;2523;51.058;6.922;2022-07-29T09:35:20;4.47;;;4.07;;
5008;SDS011;2523;51.058;6.922;2022-07-29T09:37:48;5.27;;;3.80;;
5008;SDS011;2523;51.058;6.922;2022-07-29T09:40:16;6.50;;;4.30;;
5008;SDS011;2523;51.058;6.922;2022-07-29T09:42:43;5.93;;;4.30;;
5008;SDS011;2523;51.058;6.922;2022-07-29T09:45:09;10.60;;;4.73;;
5008;SDS011;2523;51.058;6.922;2022-07-29T09:47:45;5.50;;;5.00;;
5008;SDS011;2523;51.058;6.922;2022-07-29T09:50:14;5.87;;;4.87;;
5008;SDS011;2523;51.058;6.922;2022-07-29T09:52:50;12.00;;;5.13;;
5008;SDS011;2523;51.058;6.922;2022-07-29T09:55:17;5.27;;;4.73;;
5008;SDS011;2523;51.058;6.922;2022-07-29T09:57:44;10.17;;;4.90;;
5008;SDS011;2523;51.058;6.922;2022-07-29T10:00:15;5.27;;;4.77;;
5008;SDS011;2523;51.058;6.922;2022-07-29T10:02:44;5.23;;;4.73;;
5008;SDS011;2523;51.058;6.922;2022-07-29T10:05:18;7.77;;;4.47;;
5008;SDS011;2523;51.058;6.922;2022-07-29T10:07:52;9.97;;;5.20;;
5008;SDS011;2523;51.058;6.922;2022-07-29T10:10:23;8.30;;;4.80;;
5008;SDS011;2523;51.058;6.922;2022-07-29T10:12:51;7.93;;;4.50;;
5008;SDS011;2523;51.058;6.922;2022-07-29T10:15:17;7.93;;;5.37;;
5008;SDS011;2523;51.058;6.922;2022-07-29T10:17:43;7.83;;;5.57;;
5008;SDS011;2523;51.058;6.922;2022-07-29T10:20:10;8.93;;;5.70;;
5008;SDS011;2523;51.058;6.922;2022-07-29T10:22:36;8.07;;;4.73;;
5008;SDS011;2523;51.058;6.922;2022-07-29T10:25:02;5.60;;;4.50;;
5008;SDS011;2523;51.058;6.922;2022-07-29T10:27:28;12.07;;;5.30;;
5008;SDS011;2523;51.058;6.922;2022-07-29T10:29:53;5.00;;;4.53;;
5008;SDS011;2523;51.058;6.922;2022-07-29T10:32:22;5.17;;;4.63;;
5008;SDS011;2523;51.058;6.922;2022-07-29T10:43:41;5.80;;;3.90;;
5008;SDS011;2523;51.058;6.922;2022-07-29T10:46:10;10.23;;;4.93;;
5008;SDS011;2523;51.058;6.922;2022-07-29T11:05:11;5.20;;;4.50;;
5008;SDS011;2523;51.058;6.922;2022-07-29T11:07:40;7.43;;;4.10;;
5008;SDS011;2523;51.058;6.922;2022-07-29T11:10:37;5.10;;;3.83;;
5008;SDS011;2523;51.058;6.922;2022-07-29T11:13:03;4.17;;;3.77;;
5008;SDS011;2523;51.058;6.922;2022-07-29T11:15:28;5.40;;;4.63;;
5008;SDS011;2523;51.058;6.922;2022-07-29T11:18:14;6.40;;;4.13;;
5008;SDS011;2523;51.058;6.922;2022-07-29T11:20:46;3.90;;;3.60;;
5008;SDS011;2523;51.058;6.922;2022-07-29T11:23:28;6.90;;;3.77;;
5008;SDS011;2523;51.058;6.922;2022-07-29T11:31:16;6.20;;;4.00;;
5008;SDS011;2523;51.058;6.922;2022-07-29T11:33:56;4.20;;;3.80;;
5008;SDS011;2523;51.058;6.922;2022-07-29T11:36:21;4.50;;;3.53;;
5008;SDS011;2523;51.058;6.922;2022-07-29T11:38:47;4.23;;;3.53;;
5008;SDS011;2523;51.058;6.922;2022-07-29T11:41:19;3.83;;;3.40;;
5008;SDS011;2523;51.058;6.922;2022-07-29T11:43:57;4.63;;;3.10;;
5008;SDS011;2523;51.058;6.922;2022-07-29T11:46:45;2.93;;;2.70;;
5008;SDS011;2523;51.058;6.922;2022-07-29T11:49:20;4.47;;;3.27;;
5008;SDS011;2523;51.058;6.922;2022-07-29T11:51:54;4.47;;;3.40;;
5008;SDS011;2523;51.058;6.922;2022-07-29T11:54:32;3.70;;;3.30;;
5008;SDS011;2523;51.058;6.922;2022-07-29T11:56:59;4.33;;;3.10;;
5008;SDS011;2523;51.058;6.922;2022-07-29T11:59:25;5.07;;;3.07;;
5008;SDS011;2523;51.058;6.922;2022-07-29T12:01:55;5.23;;;3.53;;
5008;SDS011;2523;51.058;6.922;2022-07-29T12:04:21;5.47;;;3.40;;
5008;SDS011;2523;51.058;6.922;2022-07-29T12:06:51;3.23;;;2.93;;
5008;SDS011;2523;51.058;6.922;2022-07-29T12:09:18;3.30;;;3.00;;
5008;SDS011;2523;51.058;6.922;2022-07-29T12:11:45;4.10;;;3.47;;
5008;SDS011;2523;51.058;6.922;2022-07-29T12:14:27;5.40;;;3.43;;
5008;SDS011;2523;51.058;6.922;2022-07-29T12:16:53;3.90;;;3.53;;
5008;SDS011;2523;51.058;6.922;2022-07-29T12:19:19;5.80;;;2.90;;
5008;SDS011;2523;51.058;6.922;2022-07-29T12:21:49;3.23;;;2.93;;
5008;SDS011;2523;51.058;6.922;2022-07-29T12:24:16;5.80;;;3.20;;
5008;SDS011;2523;51.058;6.922;2022-07-29T12:26:52;4.90;;;3.17;;
5008;SDS011;2523;51.058;6.922;2022-07-29T12:29:21;4.50;;;3.30;;
5008;SDS011;2523;51.058;6.922;2022-07-29T12:31:51;3.73;;;3.33;;
5008;SDS011;2523;51.058;6.922;2022-07-29T12:34:19;3.67;;;3.07;;
5008;SDS011;2523;51.058;6.922;2022-07-29T12:36:48;3.40;;;2.90;;
5008;SDS011;2523;51.058;6.922;2022-07-29T12:39:14;3.70;;;3.40;;
5008;SDS011;2523;51.058;6.922;2022-07-29T12:41:41;4.67;;;3.43;;
5008;SDS011;2523;51.058;6.922;2022-07-29T12:44:07;3.33;;;3.03;;
5008;SDS011;2523;51.058;6.922;2022-07-29T12:46:33;3.17;;;2.97;;
5008;SDS011;2523;51.058;6.922;2022-07-29T12:48:59;5.20;;;3.03;;
5008;SDS011;2523;51.058;6.922;2022-07-29T12:51:32;3.60;;;3.17;;
5008;SDS011;2523;51.058;6.922;2022-07-29T12:56:35;3.17;;;2.87;;
5008;SDS011;2523;51.058;6.922;2022-07-29T12:59:14;4.67;;;3.30;;
5008;SDS011;2523;51.058;6.922;2022-07-29T13:01:47;4.00;;;3.27;;
5008;SDS011;2523;51.058;6.922;2022-07-29T13:07:23;3.40;;;3.20;;
5008;SDS011;2523;51.058;6.922;2022-07-29T13:09:50;3.20;;;2.83;;
5008;SDS011;2523;51.058;6.922;2022-07-29T13:12:16;4.30;;;3.90;;
5008;SDS011;2523;51.058;6.922;2022-07-29T13:14:43;5.50;;;3.60;;
5008;SDS011;2523;51.058;6.922;2022-07-29T13:17:14;4.63;;;3.90;;
5008;SDS011;2523;51.058;6.922;2022-07-29T13:19:46;4.60;;;4.20;;
5008;SDS011;2523;51.058;6.922;2022-07-29T13:22:15;6.37;;;4.40;;
5008;SDS011;2523;51.058;6.922;2022-07-29T13:24:53;5.70;;;5.10;;
5008;SDS011;2523;51.058;6.922;2022-07-29T13:27:24;10.10;;;5.20;;
5008;SDS011;2523;51.058;6.922;2022-07-29T13:29:50;10.93;;;4.67;;
5008;SDS011;2523;51.058;6.922;2022-07-29T13:32:17;11.27;;;5.33;;
5008;SDS011;2523;51.058;6.922;2022-07-29T13:34:46;4.50;;;3.97;;
5008;SDS011;2523;51.058;6.922;2022-07-29T13:37:11;6.20;;;4.23;;
5008;SDS011;2523;51.058;6.922;2022-07-29T13:39:37;8.13;;;4.80;;
5008;SDS011;2523;51.058;6.922;2022-07-29T13:42:03;5.90;;;4.17;;
5008;SDS011;2523;51.058;6.922;2022-07-29T13:44:30;6.43;;;5.00;;
5008;SDS011;2523;51.058;6.922;2022-07-29T13:46:55;4.57;;;4.10;;
5008;SDS011;2523;51.058;6.922;2022-07-29T13:49:21;4.50;;;4.10;;
5008;SDS011;2523;51.058;6.922;2022-07-29T13:51:47;6.70;;;5.40;;
5008;SDS011;2523;51.058;6.922;2022-07-29T13:54:14;6.10;;;3.90;;
5008;SDS011;2523;51.058;6.922;2022-07-29T13:56:39;4.77;;;4.30;;
5008;SDS011;2523;51.058;6.922;2022-07-29T13:59:05;5.20;;;3.83;;
5008;SDS011;2523;51.058;6.922;2022-07-29T14:01:30;4.60;;;3.40;;
5008;SDS011;2523;51.058;6.922;2022-07-29T14:03:56;6.60;;;4.50;;
5008;SDS011;2523;51.058;6.922;2022-07-29T14:06:22;9.50;;;4.60;;
5008;SDS011;2523;51.058;6.922;2022-07-29T14:08:47;11.17;;;4.77;;
5008;SDS011;2523;51.058;6.922;2022-07-29T14:11:13;5.87;;;4.70;;
5008;SDS011;2523;51.058;6.922;2022-07-29T14:13:39;6.03;;;4.10;;
5008;SDS011;2523;51.058;6.922;2022-07-29T14:16:04;4.57;;;4.17;;
5008;SDS011;2523;51.058;6.922;2022-07-29T14:18:31;5.90;;;4.03;;
5008;SDS011;2523;51.058;6.922;2022-07-29T14:20:57;6.97;;;4.70;;
5008;SDS011;2523;51.058;6.922;2022-07-29T14:23:23;5.80;;;4.13;;
5008;SDS011;2523;51.058;6.922;2022-07-29T14:25:48;6.17;;;4.17;;
5008;SDS011;2523;51.058;6.922;2022-07-29T14:28:15;5.60;;;4.00;;
5008;SDS011;2523;51.058;6.922;2022-07-29T14:30:42;4.50;;;4.13;;
5008;SDS011;2523;51.058;6.922;2022-07-29T14:33:08;8.00;;;4.90;;
5008;SDS011;2523;51.058;6.922;2022-07-29T14:35:33;5.47;;;4.97;;
5008;SDS011;2523;51.058;6.922;2022-07-29T14:37:59;8.40;;;4.60;;
5008;SDS011;2523;51.058;6.922;2022-07-29T14:40:24;6.23;;;4.20;;
5008;SDS011;2523;51.058;6.922;2022-07-29T14:42:50;8.60;;;4.23;;
5008;SDS011;2523;51.058;6.922;2022-07-29T14:45:16;4.63;;;3.90;;
5008;SDS011;2523;51.058;6.922;2022-07-29T14:47:42;4.37;;;3.63;;
5008;SDS011;2523;51.058;6.922;2022-07-29T14:50:08;7.57;;;3.80;;
5008;SDS011;2523;51.058;6.922;2022-07-29T14:52:33;7.47;;;3.60;;
5008;SDS011;2523;51.058;6.922;2022-07-29T14:54:59;5.73;;;3.83;;
5008;SDS011;2523;51.058;6.922;2022-07-29T14:57:24;7.87;;;4.20;;
5008;SDS011;2523;51.058;6.922;2022-07-29T14:59:50;3.77;;;3.47;;
5008;SDS011;2523;51.058;6.922;2022-07-29T15:02:16;5.50;;;3.63;;
5008;SDS011;2523;51.058;6.922;2022-07-29T15:04:41;3.50;;;3.20;;
5008;SDS011;2523;51.058;6.922;2022-07-29T15:07:07;4.60;;;3.90;;
5008;SDS011;2523;51.058;6.922;2022-07-29T15:09:33;6.57;;;4.07;;
5008;SDS011;2523;51.058;6.922;2022-07-29T15:11:59;4.50;;;4.10;;
5008;SDS011;2523;51.058;6.922;2022-07-29T15:14:24;5.40;;;3.60;;
5008;SDS011;2523;51.058;6.922;2022-07-29T15:16:50;6.60;;;5.47;;
5008;SDS011;2523;51.058;6.922;2022-07-29T15:19:15;4.53;;;3.90;;
5008;SDS011;2523;51.058;6.922;2022-07-29T15:21:41;4.83;;;4.37;;
5008;SDS011;2523;51.058;6.922;2022-07-29T15:24:06;3.97;;;3.50;;
5008;SDS011;2523;51.058;6.922;2022-07-29T15:26:32;4.00;;;3.10;;
5008;SDS011;2523;51.058;6.922;2022-07-29T15:28:58;3.87;;;3.03;;
5008;SDS011;2523;51.058;6.922;2022-07-29T15:31:24;6.13;;;3.77;;
5008;SDS011;2523;51.058;6.922;2022-07-29T15:33:50;4.97;;;3.50;;
5008;SDS011;2523;51.058;6.922;2022-07-29T15:36:15;7.27;;;3.60;;
5008;SDS011;2523;51.058;6.922;2022-07-29T15:38:41;3.63;;;3.33;;
5008;SDS011;2523;51.058;6.922;2022-07-29T15:41:06;4.20;;;3.77;;
5008;SDS011;2523;51.058;6.922;2022-07-29T15:43:32;5.83;;;4.20;;
5008;SDS011;2523;51.058;6.922;2022-07-29T15:46:00;8.60;;;4.60;;
5008;SDS011;2523;51.058;6.922;2022-07-29T15:48:44;4.37;;;3.57;;
5008;SDS011;2523;51.058;6.922;2022-07-29T15:51:10;4.17;;;3.77;;
5008;SDS011;2523;51.058;6.922;2022-07-29T15:53:35;4.70;;;3.70;;
5008;SDS011;2523;51.058;6.922;2022-07-29T15:56:01;4.60;;;4.00;;
5008;SDS011;2523;51.058;6.922;2022-07-29T15:58:27;7.40;;;3.80;;
5008;SDS011;2523;51.058;6.922;2022-07-29T16:00:52;5.70;;;4.03;;
5008;SDS011;2523;51.058;6.922;2022-07-29T16:03:18;6.10;;;4.00;;